Time;durP1;ratioP1;P1;durP2;ratioP2;P2;SDS_P1;SDS_P2;PMS_P1;PMS_P2;Temp;Humidity;BMP_temperature;BMP_pressure;BME280_temperature;BME280_humidity;BME280_pressure;Samples;Min_cycle;Max_cycle;Signal;HPM_P1;HPM_P2
2023/09/26 00:00:14;;;;;;;8.10;5.13;;;;;;;16.07;70.54;102089.66;5111082;28;20098;-70
2023/09/26 00:02:41;;;;;;;7.82;5.70;;;;;;;16.08;70.40;102082.09;5103064;28;20024;-70
2023/09/26 00:05:08;;;;;;;6.53;5.40;;;;;;;16.03;70.58;102073.63;5110108;28;20031;-70
2023/09/26 00:07:34;;;;;;;7.90;5.20;;;;;;;16.02;70.30;102077.53;5111701;28;20020;-70
2023/09/26 00:10:00;;;;;;;9.82;5.35;;;;;;;16.02;70.25;102075.56;5111434;28;20035;-70
2023/09/26 00:12:29;;;;;;;9.90;5.80;;;;;;;16.01;70.14;102075.84;5111734;28;20058;-70
2023/09/26 00:14:54;;;;;;;7.35;5.50;;;;;;;16.00;69.92;102074.16;5111703;28;20459;-70
2023/09/26 00:17:19;;;;;;;7.03;5.55;;;;;;;15.99;69.95;102075.25;5099738;28;20048;-70
2023/09/26 00:19:45;;;;;;;6.63;5.38;;;;;;;15.99;69.56;102076.09;5093591;28;20421;-71
2023/09/26 00:22:10;;;;;;;9.63;5.50;;;;;;;15.99;69.64;102078.03;5086858;28;20380;-69
2023/09/26 00:24:35;;;;;;;7.50;5.13;;;;;;;15.90;69.45;102074.84;5091727;28;20031;-70
2023/09/26 00:27:01;;;;;;;8.40;5.82;;;;;;;15.91;69.71;102077.38;5090983;28;20031;-70
2023/09/26 00:29:26;;;;;;;8.35;5.55;;;;;;;15.87;69.61;102076.22;5092068;28;20052;-70
2023/09/26 00:31:51;;;;;;;8.23;5.93;;;;;;;15.86;69.76;102074.53;5091126;28;20379;-69
2023/09/26 00:34:17;;;;;;;10.13;6.30;;;;;;;15.84;69.85;102065.56;5094783;28;20028;-70
2023/09/26 00:36:44;;;;;;;6.70;5.55;;;;;;;15.83;69.85;102075.03;5090730;28;20092;-70
2023/09/26 00:39:09;;;;;;;7.22;6.47;;;;;;;15.79;69.89;102073.88;5093500;28;20028;-70
2023/09/26 00:41:35;;;;;;;8.73;5.97;;;;;;;15.77;69.86;102076.09;5098376;28;20023;-70
2023/09/26 00:44:00;;;;;;;9.75;6.13;;;;;;;15.77;69.61;102075.25;5094670;28;20522;-70
2023/09/26 00:46:27;;;;;;;8.00;6.45;;;;;;;15.77;69.92;102076.09;5091258;28;20686;-70
2023/09/26 00:48:52;;;;;;;10.90;6.60;;;;;;;15.71;69.97;102074.31;5091545;28;20032;-70
2023/09/26 00:51:17;;;;;;;8.20;5.93;;;;;;;15.72;69.62;102078.81;5104046;28;20027;-70
2023/09/26 00:53:43;;;;;;;7.75;5.60;;;;;;;15.69;69.54;102073.72;5111424;28;20107;-70
2023/09/26 00:56:09;;;;;;;9.68;6.25;;;;;;;15.69;69.82;102079.34;5110762;28;20028;-70
2023/09/26 00:58:35;;;;;;;7.50;6.30;;;;;;;15.68;69.73;102069.25;5106347;28;20077;-70
2023/09/26 01:01:02;;;;;;;9.77;6.07;;;;;;;15.68;69.72;102067.28;5090651;28;20480;-70
2023/09/26 01:03:28;;;;;;;9.77;6.00;;;;;;;15.62;69.74;102065.47;5089783;28;20473;-69
2023/09/26 01:05:53;;;;;;;6.95;5.97;;;;;;;15.63;69.63;102066.31;5090193;28;20088;-70
2023/09/26 01:08:22;;;;;;;9.50;6.65;;;;;;;15.57;69.84;102057.03;5099083;28;20489;-70
2023/09/26 01:10:47;;;;;;;8.45;6.10;;;;;;;15.58;69.91;102055.91;5110436;28;20031;-70
2023/09/26 01:13:12;;;;;;;10.45;6.40;;;;;;;15.60;69.84;102064.91;5111115;28;20020;-70
2023/09/26 01:15:39;;;;;;;7.85;5.88;;;;;;;15.57;70.04;102057.03;5110985;28;20090;-70
2023/09/26 01:18:10;;;;;;;9.70;6.05;;;;;;;15.53;70.18;102049.41;5104542;28;20036;-70
2023/09/26 01:20:39;;;;;;;10.13;5.82;;;;;;;15.50;69.90;102049.91;5111066;28;20437;-70
2023/09/26 01:23:06;;;;;;;6.57;5.50;;;;;;;15.50;69.64;102072.28;5101274;28;20101;-69
2023/09/26 01:25:35;;;;;;;8.30;5.38;;;;;;;15.46;69.74;102070.00;5090448;28;20054;-70
2023/09/26 01:28:06;;;;;;;8.35;5.80;;;;;;;15.43;69.98;102073.31;5090750;28;20024;-70
2023/09/26 01:30:37;;;;;;;7.50;5.93;;;;;;;15.43;69.75;102076.09;5090703;28;20127;-70
2023/09/26 01:33:04;;;;;;;7.90;5.55;;;;;;;15.42;69.56;102071.63;5089943;28;20107;-70
2023/09/26 01:35:32;;;;;;;9.85;6.30;;;;;;;15.42;69.63;102071.63;5088526;28;20547;-70
2023/09/26 01:37:57;;;;;;;8.18;5.75;;;;;;;15.38;69.79;102078.81;5090873;28;20028;-70
2023/09/26 01:40:22;;;;;;;7.47;5.38;;;;;;;15.39;69.92;102068.47;5093986;28;20031;-70
2023/09/26 01:42:48;;;;;;;9.32;5.90;;;;;;;15.42;70.22;102068.81;5105332;28;20080;-70
2023/09/26 01:45:13;;;;;;;8.40;5.93;;;;;;;15.41;69.99;102069.09;5111819;28;20118;-70
2023/09/26 01:47:49;;;;;;;7.93;5.90;;;;;;;15.37;70.36;102063.16;5114703;28;20031;-70
2023/09/26 01:50:21;;;;;;;10.15;5.85;;;;;;;15.33;70.47;102059.19;5114529;28;20389;-70
2023/09/26 01:52:47;;;;;;;7.70;6.78;;;;;;;15.34;70.41;102066.47;5108441;28;20027;-70
2023/09/26 01:55:17;;;;;;;10.25;6.10;;;;;;;15.33;70.29;102061.97;5107844;28;20312;-70
2023/09/26 01:57:42;;;;;;;6.78;6.07;;;;;;;15.33;70.26;102059.19;5114636;28;20035;-70
2023/09/26 02:00:14;;;;;;;11.27;6.60;;;;;;;15.28;70.22;102059.06;5094269;28;20127;-70
2023/09/26 02:02:48;;;;;;;9.45;5.97;;;;;;;15.33;70.16;102059.19;5093977;28;20027;-70
2023/09/26 02:05:16;;;;;;;8.10;6.13;;;;;;;15.28;70.21;102055.44;5094108;28;20036;-71
2023/09/26 02:07:42;;;;;;;7.57;6.03;;;;;;;15.27;70.67;102059.34;5093320;28;20112;-71
2023/09/26 02:10:08;;;;;;;9.07;6.60;;;;;;;15.26;70.67;102057.66;5094713;28;20032;-70
2023/09/26 02:12:35;;;;;;;8.75;6.53;;;;;;;15.24;70.67;102060.69;5106370;28;20028;-70
2023/09/26 02:15:08;;;;;;;9.18;6.50;;;;;;;15.26;70.36;102058.50;5112702;28;20374;-70
2023/09/26 02:17:35;;;;;;;8.70;6.60;;;;;;;15.19;70.66;102052.22;5114388;28;20026;-70
2023/09/26 02:20:08;;;;;;;9.88;7.05;;;;;;;15.17;70.89;102043.25;5114340;28;20027;-70
2023/09/26 02:22:35;;;;;;;9.75;6.75;;;;;;;15.18;71.02;102044.94;5113639;28;20490;-70
2023/09/26 02:25:00;;;;;;;7.30;6.60;;;;;;;15.22;70.52;102051.72;5104805;28;20031;-70
2023/09/26 02:27:26;;;;;;;8.95;7.05;;;;;;;15.19;70.23;102041.03;5098079;28;20031;-71
2023/09/26 02:29:51;;;;;;;7.85;7.05;;;;;;;15.10;70.24;102042.56;5113748;28;20024;-69
2023/09/26 02:32:17;;;;;;;9.10;6.55;;;;;;;15.15;70.54;102043.50;5113040;28;20147;-70
2023/09/26 02:34:42;;;;;;;8.00;6.70;;;;;;;15.11;70.65;102052.66;5113083;28;20019;-70
2023/09/26 02:37:07;;;;;;;7.50;6.70;;;;;;;15.10;70.68;102045.38;5113719;28;20024;-70
2023/09/26 02:39:33;;;;;;;9.57;6.85;;;;;;;15.10;70.77;102048.16;5106509;28;20141;-70
2023/09/26 02:41:58;;;;;;;8.45;6.72;;;;;;;15.13;70.74;102042.91;5092455;28;20032;-70
2023/09/26 02:44:23;;;;;;;10.00;6.75;;;;;;;15.07;70.71;102029.94;5092974;28;20085;-70
2023/09/26 02:46:49;;;;;;;7.97;6.40;;;;;;;15.07;70.81;102029.94;5090637;28;20043;-70
2023/09/26 02:49:14;;;;;;;9.30;7.15;;;;;;;15.06;70.94;102033.00;5091984;28;20028;-70
2023/09/26 02:51:39;;;;;;;7.32;6.63;;;;;;;15.07;70.77;102024.34;5094066;28;20028;-70
2023/09/26 02:54:05;;;;;;;9.30;6.22;;;;;;;15.05;70.90;102020.09;5106580;28;20365;-70
2023/09/26 02:56:30;;;;;;;11.35;7.00;;;;;;;15.02;70.84;102018.69;5106200;28;20032;-70
2023/09/26 02:58:55;;;;;;;8.27;7.10;;;;;;;15.02;70.88;102015.88;5093413;28;20123;-70
2023/09/26 03:01:21;;;;;;;9.90;6.85;;;;;;;14.98;70.90;102015.53;5101801;28;20031;-70
2023/09/26 03:03:47;;;;;;;11.63;7.35;;;;;;;15.01;70.76;102013.31;5093913;28;20056;-69
2023/09/26 03:06:18;;;;;;;10.10;6.97;;;;;;;14.97;71.09;102016.66;5092071;28;20081;-69
2023/09/26 03:08:43;;;;;;;11.18;7.25;;;;;;;14.95;70.73;102010.44;5095832;28;20463;-70
2023/09/26 03:11:08;;;;;;;7.45;6.63;;;;;;;15.00;71.06;101997.66;5103668;28;20042;-70
2023/09/26 03:13:34;;;;;;;9.13;7.40;;;;;;;14.98;70.93;102001.56;5092624;28;20039;-70
2023/09/26 03:16:01;;;;;;;9.00;6.78;;;;;;;14.95;70.86;102006.81;5091676;28;20103;-69
2023/09/26 03:18:26;;;;;;;8.45;6.95;;;;;;;14.91;70.66;102014.00;5092433;28;20048;-69
2023/09/26 03:20:52;;;;;;;8.98;7.20;;;;;;;14.86;70.90;102012.00;5092331;28;20436;-69
2023/09/26 03:23:18;;;;;;;9.90;7.07;;;;;;;14.88;70.84;102008.94;5092068;28;20044;-69
2023/09/26 03:25:47;;;;;;;8.75;7.03;;;;;;;14.88;70.76;101998.59;5091341;28;20335;-69
2023/09/26 03:28:12;;;;;;;10.18;7.75;;;;;;;14.88;71.04;102006.97;5095728;28;20028;-69
2023/09/26 03:30:41;;;;;;;8.95;7.30;;;;;;;14.88;71.16;102003.34;5091455;28;20103;-69
2023/09/26 03:33:07;;;;;;;8.55;7.57;;;;;;;14.87;71.13;102001.66;5094422;28;20101;-69
2023/09/26 03:35:32;;;;;;;11.35;7.78;;;;;;;14.81;70.78;102000.69;5092975;28;20515;-70
2023/09/26 03:37:57;;;;;;;9.60;7.70;;;;;;;14.80;71.08;102007.41;5104559;28;20490;-69
2023/09/26 03:40:23;;;;;;;9.18;7.10;;;;;;;14.77;71.00;102005.09;5091919;28;20084;-69
2023/09/26 03:42:48;;;;;;;9.07;7.55;;;;;;;14.75;70.77;101998.94;5092238;28;20032;-69
2023/09/26 03:45:13;;;;;;;9.10;7.78;;;;;;;14.76;71.07;102003.41;5090967;28;20503;-70
2023/09/26 03:47:39;;;;;;;8.48;7.03;;;;;;;14.76;70.95;102013.75;5095666;28;20030;-70
2023/09/26 03:50:05;;;;;;;9.88;7.68;;;;;;;14.72;71.15;102005.88;5093247;28;20036;-70
2023/09/26 03:52:30;;;;;;;10.32;7.72;;;;;;;14.72;71.29;102005.88;5089747;28;20036;-70
2023/09/26 03:54:56;;;;;;;9.95;7.65;;;;;;;14.73;71.16;102006.72;5091546;28;20459;-69
2023/09/26 03:57:24;;;;;;;9.30;7.95;;;;;;;14.75;70.61;101996.13;5091691;28;20039;-70
2023/09/26 03:59:49;;;;;;;10.18;7.15;;;;;;;14.72;70.92;102000.28;5091617;28;20021;-69
2023/09/26 04:02:15;;;;;;;11.75;7.50;;;;;;;14.70;70.94;101990.47;5099195;28;20019;-69
2023/09/26 04:04:40;;;;;;;8.25;7.25;;;;;;;14.74;71.03;101991.66;5112214;28;20486;-69
2023/09/26 04:07:06;;;;;;;9.35;7.97;;;;;;;14.65;70.58;101993.16;5099997;28;20035;-69
2023/09/26 04:09:33;;;;;;;9.30;7.40;;;;;;;14.64;70.71;102008.22;5094323;28;20031;-70
2023/09/26 04:11:58;;;;;;;8.32;7.25;;;;;;;14.61;70.51;101994.75;5111130;28;20059;-70
2023/09/26 04:14:24;;;;;;;9.68;6.63;;;;;;;14.60;70.40;102004.25;5110712;28;20431;-70
2023/09/26 04:16:51;;;;;;;8.73;7.32;;;;;;;14.59;70.64;101996.97;5112063;28;20028;-70
2023/09/26 04:19:17;;;;;;;9.57;7.05;;;;;;;14.58;71.16;101986.88;5111902;28;20506;-70
2023/09/26 04:21:42;;;;;;;10.73;7.18;;;;;;;14.55;70.89;101985.47;5111165;28;20044;-70
2023/09/26 04:24:16;;;;;;;9.40;6.93;;;;;;;14.56;70.72;101986.28;5092469;28;20055;-70
2023/09/26 04:26:42;;;;;;;9.88;7.20;;;;;;;14.52;71.19;101990.69;5105551;28;20031;-70
2023/09/26 04:29:07;;;;;;;8.02;6.85;;;;;;;14.54;71.29;101980.09;5109557;28;20075;-69
2023/09/26 04:31:32;;;;;;;7.50;6.78;;;;;;;14.48;71.19;101966.03;5105750;28;20032;-70
2023/09/26 04:33:58;;;;;;;9.30;7.03;;;;;;;14.46;71.18;101971.03;5090805;28;20102;-69
2023/09/26 04:36:23;;;;;;;8.80;7.38;;;;;;;14.47;70.98;101967.13;5091313;28;20024;-71
2023/09/26 04:38:49;;;;;;;13.27;7.03;;;;;;;14.49;71.03;101975.28;5090450;28;20028;-70
2023/09/26 04:41:15;;;;;;;9.27;7.60;;;;;;;14.43;71.21;101974.31;5108161;28;20095;-70
2023/09/26 04:43:41;;;;;;;13.45;7.88;;;;;;;14.45;71.45;101971.25;5105658;28;20023;-70
2023/09/26 04:46:13;;;;;;;12.93;7.75;;;;;;;14.45;71.82;101971.25;5111554;28;20494;-70
2023/09/26 04:48:39;;;;;;;8.75;7.65;;;;;;;14.46;71.77;101956.19;5109871;28;20043;-70
2023/09/26 04:51:07;;;;;;;8.18;7.22;;;;;;;14.44;71.94;101956.44;5111316;28;20383;-70
2023/09/26 04:53:33;;;;;;;9.45;7.45;;;;;;;14.47;71.77;101961.53;5110370;28;20034;-70
2023/09/26 04:56:03;;;;;;;9.23;8.10;;;;;;;14.43;71.84;101957.56;5090363;28;20400;-69
2023/09/26 04:58:32;;;;;;;9.27;7.82;;;;;;;14.45;72.32;101955.34;5091080;28;20061;-70
2023/09/26 05:01:10;;;;;;;9.32;8.05;;;;;;;14.47;72.09;101952.31;5090745;28;20056;-70
2023/09/26 05:03:35;;;;;;;10.48;7.80;;;;;;;14.49;72.07;101955.72;5097533;28;20031;-69
2023/09/26 05:06:01;;;;;;;9.52;8.32;;;;;;;14.47;71.62;101955.09;5092127;28;20040;-70
2023/09/26 05:08:29;;;;;;;10.43;8.05;;;;;;;14.49;71.75;101964.09;5094388;28;20060;-70
2023/09/26 05:10:54;;;;;;;12.30;8.57;;;;;;;14.46;72.19;101964.56;5109050;28;20081;-70
2023/09/26 05:13:22;;;;;;;9.75;7.78;;;;;;;14.46;72.24;101958.97;5107859;28;20051;-69
2023/09/26 05:15:48;;;;;;;12.00;7.97;;;;;;;14.47;72.29;101953.16;5094844;28;20035;-70
2023/09/26 05:18:13;;;;;;;11.55;7.85;;;;;;;14.50;72.43;101949.03;5094002;28;20024;-70
2023/09/26 05:20:39;;;;;;;8.88;7.70;;;;;;;14.51;72.29;101947.09;5094534;28;20028;-69
2023/09/26 05:23:04;;;;;;;13.35;7.68;;;;;;;14.49;72.57;101959.34;5094675;28;20151;-69
2023/09/26 05:25:33;;;;;;;9.88;7.85;;;;;;;14.47;72.38;101960.69;5094754;28;20114;-69
2023/09/26 05:27:59;;;;;;;11.18;7.85;;;;;;;14.50;72.75;101960.19;5113121;28;20398;-70
2023/09/26 05:30:24;;;;;;;9.88;8.10;;;;;;;14.45;72.81;101963.72;5093219;28;20028;-70
2023/09/26 05:32:50;;;;;;;11.98;8.10;;;;;;;14.42;72.58;101950.28;5098791;28;20435;-69
2023/09/26 05:35:15;;;;;;;10.30;7.85;;;;;;;14.45;72.49;101958.13;5099395;28;20397;-70
2023/09/26 05:37:44;;;;;;;12.02;7.70;;;;;;;14.43;72.53;101960.34;5095728;28;20487;-70
2023/09/26 05:40:10;;;;;;;11.18;8.75;;;;;;;14.42;72.74;101955.88;5095199;28;20032;-69
2023/09/26 05:42:37;;;;;;;8.93;7.88;;;;;;;14.42;72.31;101961.47;5094264;28;20530;-71
2023/09/26 05:45:03;;;;;;;9.65;8.02;;;;;;;14.41;72.66;101964.47;5092997;28;20066;-71
2023/09/26 05:47:31;;;;;;;10.75;8.15;;;;;;;14.44;72.50;101970.41;5093194;28;20041;-70
2023/09/26 05:49:57;;;;;;;8.90;7.88;;;;;;;14.42;72.45;101974.56;5091518;28;20528;-71
2023/09/26 05:52:22;;;;;;;9.60;7.72;;;;;;;14.44;72.65;101975.16;5091751;28;20032;-70
2023/09/26 05:54:48;;;;;;;14.65;8.27;;;;;;;14.40;72.60;101974.81;5103667;28;20161;-68
2023/09/26 05:57:16;;;;;;;11.77;7.80;;;;;;;14.43;72.51;101974.31;5093330;28;20378;-71
2023/09/26 05:59:44;;;;;;;9.35;7.50;;;;;;;14.44;72.73;101981.59;5093209;28;20047;-70
2023/09/26 06:02:13;;;;;;;9.63;7.80;;;;;;;14.44;73.22;101972.38;5093391;28;20027;-70
2023/09/26 06:04:42;;;;;;;9.65;8.52;;;;;;;14.46;73.59;101971.03;5092907;28;20024;-69
2023/09/26 06:07:07;;;;;;;9.10;8.07;;;;;;;14.48;74.10;101965.19;5088658;28;20459;-68
2023/09/26 06:09:32;;;;;;;8.52;7.60;;;;;;;14.50;74.11;101974.16;5113143;28;20054;-69
2023/09/26 06:11:58;;;;;;;11.43;8.18;;;;;;;14.55;74.46;101974.28;5094484;28;20043;-70
2023/09/26 06:14:23;;;;;;;10.85;8.32;;;;;;;14.58;74.45;101968.19;5089011;28;20458;-68
2023/09/26 06:16:48;;;;;;;11.57;8.63;;;;;;;14.61;74.77;101966.81;5090819;28;20548;-67
2023/09/26 06:19:14;;;;;;;10.23;8.50;;;;;;;14.64;74.74;101969.13;5103889;28;20467;-68
2023/09/26 06:21:45;;;;;;;9.98;8.70;;;;;;;14.66;74.77;101969.72;5110234;28;20028;-68
2023/09/26 06:24:10;;;;;;;10.80;8.93;;;;;;;14.70;74.44;101966.16;5093835;28;20051;-68
2023/09/26 06:26:37;;;;;;;10.52;8.82;;;;;;;14.73;74.80;101954.44;5094550;28;20025;-68
2023/09/26 06:29:02;;;;;;;11.40;8.95;;;;;;;14.75;74.46;101954.22;5090635;28;20031;-67
2023/09/26 06:31:28;;;;;;;11.35;8.73;;;;;;;14.78;74.53;101950.06;5090884;28;20028;-66
2023/09/26 06:33:54;;;;;;;12.50;9.25;;;;;;;14.82;74.36;101940.09;5097386;28;20038;-67
2023/09/26 06:36:22;;;;;;;11.45;8.73;;;;;;;14.83;74.66;101947.34;5112825;28;20039;-68
2023/09/26 06:38:48;;;;;;;11.13;8.60;;;;;;;14.85;74.79;101951.56;5095611;28;20501;-68
2023/09/26 06:41:13;;;;;;;12.18;9.02;;;;;;;14.85;75.09;101957.16;5105800;28;20027;-67
2023/09/26 06:43:39;;;;;;;10.10;8.80;;;;;;;14.90;74.65;101946.09;5098324;28;20101;-66
2023/09/26 06:46:08;;;;;;;10.35;8.80;;;;;;;14.90;75.31;101960.06;5096087;28;20471;-67
2023/09/26 06:48:42;;;;;;;12.23;8.55;;;;;;;14.91;75.20;101966.50;5102699;28;20110;-66
2023/09/26 06:51:08;;;;;;;11.65;9.00;;;;;;;14.91;75.51;101966.50;5095004;28;20084;-66
2023/09/26 06:53:34;;;;;;;10.98;8.80;;;;;;;14.95;75.42;101953.69;5091873;28;20425;-66
2023/09/26 06:56:09;;;;;;;9.55;8.43;;;;;;;14.97;75.55;101957.94;5106216;28;20540;-66
2023/09/26 06:58:35;;;;;;;12.18;9.13;;;;;;;14.97;75.64;101969.13;5095800;28;20069;-67
2023/09/26 07:01:00;;;;;;;15.70;8.15;;;;;;;14.98;75.42;101965.22;5095054;28;20495;-67
2023/09/26 07:03:32;;;;;;;13.88;8.75;;;;;;;15.00;75.39;101961.31;5095156;28;20034;-67
2023/09/26 07:05:57;;;;;;;14.73;8.50;;;;;;;15.06;74.80;101960.31;5095299;28;20127;-67
2023/09/26 07:08:23;;;;;;;11.20;8.40;;;;;;;15.05;74.91;101965.06;5096420;28;20124;-68
2023/09/26 07:10:49;;;;;;;11.70;8.30;;;;;;;15.07;75.15;101970.38;5090906;28;20485;-65
2023/09/26 07:13:15;;;;;;;12.10;8.23;;;;;;;15.10;75.05;101965.13;5095955;28;20032;-67
2023/09/26 07:15:41;;;;;;;12.90;7.93;;;;;;;15.13;74.52;101969.34;5095908;28;20046;-67
2023/09/26 07:18:09;;;;;;;10.75;7.50;;;;;;;15.16;74.38;101968.81;5091517;28;20471;-67
2023/09/26 07:20:47;;;;;;;14.93;8.07;;;;;;;15.17;75.10;101960.19;5092095;28;20024;-66
2023/09/26 07:23:13;;;;;;;8.57;7.43;;;;;;;15.20;75.23;101961.63;5089687;28;20039;-66
2023/09/26 07:25:38;;;;;;;13.85;7.57;;;;;;;15.26;74.97;101960.59;5096208;28;20027;-66
2023/09/26 07:28:04;;;;;;;10.65;7.68;;;;;;;15.29;74.99;101951.69;5096740;28;20028;-67
2023/09/26 07:30:30;;;;;;;13.13;7.30;;;;;;;15.33;75.22;101952.03;5091180;28;20024;-65
2023/09/26 07:32:55;;;;;;;10.52;7.25;;;;;;;15.38;74.75;101966.91;5090053;28;20032;-65
2023/09/26 07:35:20;;;;;;;9.88;7.60;;;;;;;15.41;74.67;101966.41;5105504;28;20482;-65
2023/09/26 07:37:46;;;;;;;11.75;7.63;;;;;;;15.47;74.69;101965.38;5110602;28;20069;-66
2023/09/26 07:40:11;;;;;;;10.63;6.88;;;;;;;15.55;74.78;101968.81;5110620;28;20027;-66
2023/09/26 07:42:36;;;;;;;10.73;7.95;;;;;;;15.56;73.91;101960.19;5108602;28;20501;-67
2023/09/26 07:45:05;;;;;;;11.30;7.00;;;;;;;15.59;73.82;101959.63;5090813;28;20024;-67
2023/09/26 07:47:30;;;;;;;8.32;7.35;;;;;;;15.66;73.91;101965.09;5091161;28;20034;-67
2023/09/26 07:49:56;;;;;;;8.85;6.57;;;;;;;15.67;74.09;101961.16;5101249;28;20467;-67
2023/09/26 07:52:25;;;;;;;10.60;6.80;;;;;;;15.68;73.67;101965.69;5099286;28;20028;-67
2023/09/26 07:54:51;;;;;;;9.45;6.10;;;;;;;15.69;73.29;101971.00;5091314;28;20128;-67
2023/09/26 07:57:16;;;;;;;9.32;6.20;;;;;;;15.72;72.69;101964.06;5098504;28;20414;-68
2023/09/26 07:59:42;;;;;;;8.63;6.32;;;;;;;15.78;72.84;101970.56;5090163;28;20024;-68
2023/09/26 08:02:07;;;;;;;5.80;3.80;;;;;;;15.98;75.12;101964.34;5097752;28;20028;-65
2023/09/26 08:04:35;;;;;;;6.53;4.35;;;;;;;16.07;75.37;101962.75;5094986;28;20102;-67
2023/09/26 08:07:00;;;;;;;4.47;3.25;;;;;;;16.30;75.41;101964.41;5090364;28;20028;-66
2023/09/26 08:09:26;;;;;;;5.07;4.57;;;;;;;16.41;73.89;101963.41;5090759;28;20046;-68
2023/09/26 08:11:51;;;;;;;6.63;5.03;;;;;;;16.53;73.23;101950.06;5090060;28;20056;-67
2023/09/26 08:14:17;;;;;;;8.00;4.70;;;;;;;16.72;73.28;101947.72;5091408;28;20075;-67
2023/09/26 08:16:43;;;;;;;6.35;4.60;;;;;;;16.79;72.11;101941.94;5091067;28;20019;-67
2023/09/26 08:19:11;;;;;;;6.60;4.22;;;;;;;16.89;71.88;101947.59;5089246;28;20031;-67
2023/09/26 08:21:36;;;;;;;7.35;4.38;;;;;;;16.94;71.10;101950.47;5088257;28;20169;-67
2023/09/26 08:24:03;;;;;;;9.70;5.75;;;;;;;16.91;70.75;101957.44;5093370;28;20119;-67
2023/09/26 08:26:29;;;;;;;7.85;5.00;;;;;;;16.99;70.75;101944.88;5108982;28;20031;-69
2023/09/26 08:28:54;;;;;;;5.60;4.43;;;;;;;17.08;70.46;101943.25;5111324;28;20028;-66
2023/09/26 08:31:20;;;;;;;6.45;4.55;;;;;;;17.13;70.02;101951.72;5110024;28;20039;-67
2023/09/26 08:33:45;;;;;;;8.13;4.75;;;;;;;17.26;69.47;101949.53;5107487;28;20039;-66
2023/09/26 08:36:18;;;;;;;7.30;5.45;;;;;;;17.26;69.00;101950.38;5093195;28;20024;-66
2023/09/26 08:38:44;;;;;;;6.78;4.65;;;;;;;17.40;68.88;101947.91;5102122;28;20069;-66
2023/09/26 08:41:10;;;;;;;5.82;4.15;;;;;;;17.50;68.77;101948.00;5091552;28;20099;-66
2023/09/26 08:43:35;;;;;;;6.97;4.50;;;;;;;17.56;68.56;101946.88;5090363;28;20074;-67
2023/09/26 08:46:01;;;;;;;8.13;4.60;;;;;;;17.62;68.29;101944.94;5096398;28;20036;-67
2023/09/26 08:48:30;;;;;;;6.35;4.35;;;;;;;17.70;68.24;101937.97;5089924;28;20028;-66
2023/09/26 08:50:56;;;;;;;7.82;4.70;;;;;;;17.76;67.89;101939.69;5091040;28;20046;-67
2023/09/26 08:53:21;;;;;;;9.27;4.45;;;;;;;17.84;67.61;101936.34;5090320;28;20036;-67
2023/09/26 08:55:49;;;;;;;7.25;4.07;;;;;;;17.88;66.93;101932.75;5090660;28;20486;-67
2023/09/26 08:58:15;;;;;;;6.85;3.95;;;;;;;17.94;67.37;101939.19;5090574;28;20024;-66
2023/09/26 09:00:42;;;;;;;7.45;5.03;;;;;;;17.85;66.18;101936.09;5100170;28;20411;-66
2023/09/26 09:03:11;;;;;;;6.10;4.20;;;;;;;17.97;66.46;101935.00;5089910;28;20031;-67
2023/09/26 09:05:36;;;;;;;6.40;4.07;;;;;;;18.02;66.47;101932.19;5097143;28;20028;-68
2023/09/26 09:08:01;;;;;;;6.05;3.85;;;;;;;18.06;66.33;101936.16;5099340;28;20110;-66
2023/09/26 09:10:27;;;;;;;10.85;4.68;;;;;;;18.10;65.54;101921.25;5091216;28;20137;-67
2023/09/26 09:13:05;;;;;;;6.50;4.70;;;;;;;18.15;65.68;101931.66;5090049;28;20028;-68
2023/09/26 09:15:31;;;;;;;6.95;3.85;;;;;;;18.22;65.06;101932.25;5097130;28;20086;-66
2023/09/26 09:17:57;;;;;;;5.47;4.15;;;;;;;18.32;65.46;101929.47;5092413;28;20024;-67
2023/09/26 09:20:32;;;;;;;9.20;4.57;;;;;;;18.35;64.92;101934.53;5101035;28;20502;-67
2023/09/26 09:23:05;;;;;;;7.70;4.28;;;;;;;18.43;64.50;101938.75;5109714;28;20490;-67
2023/09/26 09:25:35;;;;;;;9.93;4.55;;;;;;;18.48;64.50;101940.72;5110604;28;20028;-67
2023/09/26 09:28:03;;;;;;;6.65;4.25;;;;;;;18.49;63.89;101946.06;5104977;28;20069;-65
2023/09/26 09:30:28;;;;;;;5.13;3.60;;;;;;;18.50;63.42;101927.22;5095904;28;20024;-67
2023/09/26 09:32:55;;;;;;;5.80;3.45;;;;;;;18.59;63.39;101936.78;5090489;28;20111;-67
2023/09/26 09:35:20;;;;;;;7.53;3.53;;;;;;;18.63;62.34;101932.28;5108137;28;20031;-68
2023/09/26 09:37:50;;;;;;;5.80;3.70;;;;;;;18.67;62.83;101933.41;5093520;28;20094;-68
2023/09/26 09:40:20;;;;;;;5.88;3.78;;;;;;;18.69;63.20;101928.34;5095588;28;20023;-69
2023/09/26 09:42:51;;;;;;;5.30;3.45;;;;;;;18.64;61.69;101925.53;5094259;28;20375;-68
2023/09/26 09:45:18;;;;;;;5.03;3.70;;;;;;;18.62;61.07;101913.72;5092487;28;20105;-68
2023/09/26 09:47:48;;;;;;;7.80;3.63;;;;;;;18.68;61.87;101909.78;5094302;28;20432;-68
2023/09/26 09:50:15;;;;;;;7.18;3.60;;;;;;;18.68;60.29;101898.53;5089960;28;20028;-68
2023/09/26 09:52:43;;;;;;;7.38;3.92;;;;;;;18.67;60.36;101908.09;5087102;28;20044;-68
2023/09/26 09:55:16;;;;;;;5.82;3.63;;;;;;;18.69;60.35;101911.47;5087120;28;20050;-68
2023/09/26 09:57:46;;;;;;;6.78;4.57;;;;;;;18.70;60.45;101916.00;5089243;28;20458;-68
2023/09/26 10:00:13;;;;;;;7.68;3.80;;;;;;;18.69;59.79;101903.03;5088697;28;20027;-68
2023/09/26 10:02:38;;;;;;;5.95;3.20;;;;;;;18.72;60.07;101908.13;5102940;28;20024;-68
2023/09/26 10:05:07;;;;;;;7.72;3.83;;;;;;;18.70;59.49;101904.75;5090367;28;20669;-69
2023/09/26 10:07:33;;;;;;;5.95;3.65;;;;;;;18.70;59.38;101913.19;5101976;28;20816;-68
2023/09/26 10:10:00;;;;;;;7.70;3.63;;;;;;;18.69;60.13;101908.66;5110785;28;20031;-68
2023/09/26 10:12:27;;;;;;;5.28;3.60;;;;;;;18.68;60.40;101906.13;5110338;28;20446;-68
2023/09/26 10:14:55;;;;;;;5.03;3.25;;;;;;;18.71;60.75;101905.63;5099702;28;20067;-68
2023/09/26 10:17:20;;;;;;;8.45;4.03;;;;;;;18.70;61.49;101917.94;5108857;28;20032;-68
2023/09/26 10:19:47;;;;;;;4.82;3.58;;;;;;;18.70;61.56;101907.56;5110294;28;20031;-68
2023/09/26 10:22:14;;;;;;;6.75;4.00;;;;;;;18.68;60.94;101912.59;5110437;28;20536;-68
2023/09/26 10:24:53;;;;;;;6.97;3.72;;;;;;;18.67;61.80;101910.91;5110638;28;20040;-69
2023/09/26 10:27:31;;;;;;;6.63;4.10;;;;;;;18.63;62.17;101909.81;5110101;28;20114;-69
2023/09/26 10:29:57;;;;;;;5.32;3.28;;;;;;;18.66;62.52;101909.22;5094797;28;20445;-68
2023/09/26 10:32:34;;;;;;;5.63;3.65;;;;;;;18.68;62.87;101911.75;5091975;28;20031;-68
2023/09/26 10:35:22;;;;;;;4.75;3.67;;;;;;;18.72;62.54;101907.28;5088657;28;20020;-67
2023/09/26 10:38:09;;;;;;;5.10;3.80;;;;;;;18.75;62.67;101904.75;5091883;28;20036;-67
2023/09/26 10:40:35;;;;;;;5.13;3.50;;;;;;;18.77;62.97;101896.03;5089526;28;20427;-67
2023/09/26 10:43:02;;;;;;;5.80;3.90;;;;;;;18.82;62.97;101901.63;5090444;28;20052;-68
2023/09/26 10:45:27;;;;;;;7.60;3.80;;;;;;;18.83;62.96;101892.09;5087247;28;20510;-67
2023/09/26 10:47:53;;;;;;;7.10;3.70;;;;;;;18.86;62.91;101886.75;5091319;28;20032;-67
2023/09/26 10:50:20;;;;;;;5.93;3.70;;;;;;;18.89;62.88;101903.03;5089811;28;20040;-69
2023/09/26 10:52:49;;;;;;;6.10;3.67;;;;;;;18.89;63.52;101910.63;5092087;28;20892;-68
2023/09/26 10:55:19;;;;;;;5.60;3.47;;;;;;;18.92;62.95;101896.00;5096728;28;20118;-69
2023/09/26 10:57:45;;;;;;;4.97;3.58;;;;;;;18.94;63.86;101876.84;5095054;28;20492;-68
2023/09/26 11:00:14;;;;;;;6.95;3.90;;;;;;;18.95;62.48;101872.09;5091925;28;20101;-67
2023/09/26 11:02:41;;;;;;;4.75;3.70;;;;;;;19.02;63.18;101878.25;5101256;28;20150;-68
2023/09/26 11:05:16;;;;;;;7.22;3.60;;;;;;;19.04;63.41;101882.47;5096019;28;20181;-68
2023/09/26 11:07:44;;;;;;;4.95;3.30;;;;;;;19.10;63.23;101892.59;5089535;28;20039;-68
2023/09/26 11:10:16;;;;;;;6.65;4.15;;;;;;;19.10;63.91;101903.03;5089300;28;20164;-67
2023/09/26 11:12:43;;;;;;;6.30;4.38;;;;;;;19.11;62.89;101907.50;5099322;28;20064;-67
2023/09/26 11:15:09;;;;;;;5.32;4.30;;;;;;;19.11;62.89;101905.53;5102838;28;20137;-67
2023/09/26 11:17:39;;;;;;;5.60;3.88;;;;;;;19.11;64.43;101905.53;5095346;28;20051;-66
2023/09/26 11:20:07;;;;;;;7.75;3.95;;;;;;;19.14;63.41;101890.06;5093604;28;20031;-67
2023/09/26 11:22:51;;;;;;;7.20;3.65;;;;;;;19.13;64.07;101874.28;5093747;28;20337;-67